createdAt,value
2022-12-18T00:02:10.114Z,13.97
2022-12-18T00:04:52.482Z,13.84
2022-12-18T00:07:41.086Z,13.81
2022-12-18T00:10:23.498Z,13.76
2022-12-18T00:13:12.120Z,13.69
2022-12-18T00:16:01.223Z,13.82
2022-12-18T00:18:44.369Z,13.83
2022-12-18T00:21:34.160Z,13.84
2022-12-18T00:24:16.330Z,13.85
2022-12-18T00:27:05.261Z,13.81
2022-12-18T00:29:53.446Z,13.74
2022-12-18T00:32:49.157Z,13.71
2022-12-18T00:35:34.712Z,13.67
2022-12-18T00:38:23.564Z,13.56
2022-12-18T00:41:06.107Z,13.70
2022-12-18T00:43:55.250Z,13.71
2022-12-18T00:46:37.336Z,13.61
2022-12-18T00:49:26.191Z,13.46
2022-12-18T00:52:08.403Z,13.58
2022-12-18T00:54:58.797Z,13.74
2022-12-18T00:57:44.523Z,13.58
2022-12-18T01:00:33.213Z,13.62
2022-12-18T01:03:25.529Z,13.68
2022-12-18T01:06:08.058Z,13.69
2022-12-18T01:08:56.443Z,13.63
2022-12-18T01:11:39.151Z,13.45
2022-12-18T01:14:21.632Z,13.54
2022-12-18T01:17:12.144Z,13.52
2022-12-18T01:20:00.390Z,13.47
2022-12-18T01:22:42.194Z,13.62
2022-12-18T01:25:24.403Z,13.63
2022-12-18T01:28:13.194Z,13.64
2022-12-18T01:30:55.303Z,13.72
2022-12-18T01:33:44.135Z,13.74
2022-12-18T01:36:29.614Z,13.69
2022-12-18T01:39:26.118Z,13.55
2022-12-18T01:42:23.485Z,13.44
2022-12-18T01:45:14.034Z,13.43
2022-12-18T01:48:06.597Z,13.45
2022-12-18T01:50:52.188Z,13.34
2022-12-18T01:53:42.180Z,13.29
2022-12-18T01:56:30.252Z,13.32
2022-12-18T01:59:19.992Z,13.29
2022-12-18T02:02:09.313Z,13.29
2022-12-18T02:04:57.446Z,13.39
2022-12-18T02:07:54.067Z,13.23
2022-12-18T02:11:13.420Z,13.25
2022-12-18T02:14:10.096Z,13.04
2022-12-18T02:17:10.370Z,13.15
2022-12-18T02:20:12.136Z,13.25
2022-12-18T02:23:19.421Z,13.32
2022-12-18T02:26:15.127Z,13.32
2022-12-18T02:29:14.418Z,13.35
2022-12-18T02:32:07.106Z,13.41
2022-12-18T02:34:58.484Z,13.36
2022-12-18T02:37:43.975Z,13.31
2022-12-18T02:40:35.181Z,13.29
2022-12-18T02:43:24.406Z,13.42
2022-12-18T02:46:38.194Z,13.66
2022-12-18T02:49:38.935Z,13.71
2022-12-18T02:52:33.076Z,13.69
2022-12-18T02:55:52.489Z,13.85
2022-12-18T02:58:49.113Z,13.84
2022-12-18T03:02:00.575Z,13.94
2022-12-18T03:05:00.130Z,14.04
2022-12-18T03:07:52.412Z,14.14
2022-12-18T03:10:52.025Z,14.36
2022-12-18T03:14:08.111Z,14.83
2022-12-18T03:17:01.371Z,14.74
2022-12-18T03:19:45.153Z,14.85
2022-12-18T03:22:35.876Z,14.92
2022-12-18T03:28:18.981Z,15.23
2022-12-18T03:31:16.974Z,15.36
2022-12-18T03:34:25.035Z,15.72
2022-12-18T03:37:19.117Z,16.12
2022-12-18T03:40:01.393Z,16.39
2022-12-18T03:43:06.976Z,16.85
2022-12-18T03:46:00.451Z,17.21
2022-12-18T03:49:06.024Z,17.65
2022-12-18T03:52:00.770Z,17.95
2022-12-18T03:54:52.977Z,18.35
2022-12-18T03:57:39.439Z,18.49
2022-12-18T04:00:29.167Z,18.83
2022-12-18T04:03:26.615Z,19.04
2022-12-18T04:06:19.993Z,19.28
2022-12-18T04:09:03.388Z,19.41
2022-12-18T04:11:57.192Z,20.06
2022-12-18T04:14:46.149Z,20.34
2022-12-18T04:17:28.393Z,20.49
2022-12-18T04:20:18.113Z,20.64
2022-12-18T04:23:06.994Z,20.66
2022-12-18T04:25:49.404Z,20.84
2022-12-18T04:28:53.278Z,20.98
2022-12-18T04:31:36.402Z,21.09
2022-12-18T04:34:25.149Z,21.08
2022-12-18T04:37:07.422Z,20.68
2022-12-18T04:39:56.124Z,20.88
2022-12-18T04:42:47.392Z,20.89
2022-12-18T04:45:36.209Z,20.71
2022-12-18T04:48:18.438Z,20.58
2022-12-18T04:51:07.148Z,20.64
2022-12-18T04:53:49.378Z,20.47
2022-12-18T04:56:40.215Z,20.51
2022-12-18T04:59:22.399Z,20.50
2022-12-18T05:02:12.222Z,20.47
2022-12-18T05:04:54.382Z,20.26
2022-12-18T05:07:42.998Z,20.63
2022-12-18T05:10:25.455Z,20.57
2022-12-18T05:13:14.152Z,20.29
2022-12-18T05:16:01.508Z,20.22
2022-12-18T05:18:50.119Z,19.99
2022-12-18T05:21:32.430Z,19.78
2022-12-18T05:24:21.092Z,20.30
2022-12-18T05:27:03.563Z,20.61
2022-12-18T05:29:52.174Z,20.68
2022-12-18T05:32:34.374Z,20.66
2022-12-18T05:35:29.399Z,20.64
2022-12-18T05:38:19.393Z,20.75
2022-12-18T05:41:02.145Z,20.58
2022-12-18T05:43:44.918Z,20.80
2022-12-18T05:46:34.207Z,21.11
2022-12-18T05:49:23.097Z,21.28
2022-12-18T05:52:05.860Z,21.49
2022-12-18T05:54:55.107Z,22.23
2022-12-18T05:57:37.446Z,22.21
2022-12-18T06:00:26.130Z,22.10
2022-12-18T06:03:08.543Z,22.10
2022-12-18T06:05:57.144Z,22.14
2022-12-18T06:08:44.374Z,22.37
2022-12-18T06:11:36.137Z,22.71
2022-12-18T06:14:26.152Z,22.41
2022-12-18T06:17:14.417Z,22.42
2022-12-18T06:19:56.036Z,22.76
2022-12-18T06:22:39.134Z,22.74
2022-12-18T06:25:28.094Z,22.69
2022-12-18T06:28:31.406Z,22.81
2022-12-18T06:34:11.389Z,22.58
2022-12-18T06:36:54.006Z,22.95
2022-12-18T06:39:43.198Z,22.96
2022-12-18T06:42:25.575Z,22.89
2022-12-18T06:45:14.188Z,22.70
2022-12-18T06:47:56.448Z,23.02
2022-12-18T06:50:46.142Z,22.47
2022-12-18T06:53:35.042Z,22.64
2022-12-18T06:56:23.508Z,22.56
2022-12-18T06:59:06.089Z,22.91
2022-12-18T07:01:55.671Z,22.50
2022-12-18T07:04:40.096Z,22.83
2022-12-18T07:07:28.956Z,22.98
2022-12-18T07:10:19.094Z,22.98
2022-12-18T07:13:07.283Z,22.94
2022-12-18T07:15:49.036Z,23.22
2022-12-18T07:18:31.272Z,23.17
2022-12-18T07:21:26.148Z,22.38
2022-12-18T07:24:15.367Z,22.75
2022-12-18T07:27:04.055Z,23.06
2022-12-18T07:29:53.580Z,23.06
2022-12-18T07:32:41.405Z,23.02
2022-12-18T07:35:25.437Z,23.15
2022-12-18T07:38:07.508Z,23.33
2022-12-18T07:40:56.144Z,22.98
2022-12-18T07:43:45.411Z,23.17
2022-12-18T07:46:28.100Z,23.30
2022-12-18T07:49:10.331Z,22.79
2022-12-18T07:51:59.142Z,23.11
2022-12-18T07:54:42.358Z,22.94
2022-12-18T07:57:49.834Z,22.47
2022-12-18T08:00:39.361Z,22.91
2022-12-18T08:03:25.170Z,22.61
2022-12-18T08:06:16.106Z,22.85
2022-12-18T08:09:10.049Z,23.09
2022-12-18T08:11:59.089Z,23.23
2022-12-18T08:14:41.629Z,22.61
2022-12-18T08:17:29.975Z,23.14
2022-12-18T08:20:16.898Z,23.21
2022-12-18T08:23:07.082Z,23.30
2022-12-18T08:26:03.142Z,23.31
2022-12-18T08:28:45.933Z,23.09
2022-12-18T08:31:35.074Z,22.96
2022-12-18T08:34:17.359Z,23.09
2022-12-18T08:37:06.335Z,23.16
2022-12-18T08:39:48.343Z,22.96
2022-12-18T08:42:55.139Z,23.12
2022-12-18T08:45:37.485Z,23.31
2022-12-18T08:48:26.114Z,23.35
2022-12-18T08:51:08.692Z,23.27
2022-12-18T08:53:58.050Z,23.21
2022-12-18T08:56:47.041Z,23.29
2022-12-18T08:59:29.422Z,23.21
2022-12-18T09:02:20.225Z,23.24
2022-12-18T09:05:02.360Z,22.92
2022-12-18T09:07:50.981Z,23.26
2022-12-18T09:10:34.271Z,23.23
2022-12-18T09:13:26.031Z,23.20
2022-12-18T09:16:08.281Z,23.17
2022-12-18T09:18:56.935Z,22.93
2022-12-18T09:21:47.732Z,23.05
2022-12-18T09:24:37.201Z,23.21
2022-12-18T09:27:25.388Z,23.16
2022-12-18T09:30:08.139Z,23.16
2022-12-18T09:32:57.503Z,23.12
2022-12-18T09:35:40.078Z,22.78
2022-12-18T09:38:29.365Z,23.03
2022-12-18T09:41:35.112Z,22.94
2022-12-18T09:44:35.377Z,22.86
2022-12-18T09:47:25.979Z,22.75
2022-12-18T09:50:34.050Z,22.91
2022-12-18T09:53:24.427Z,22.87
2022-12-18T09:56:13.997Z,22.56
2022-12-18T09:59:08.415Z,22.79
2022-12-18T10:01:57.065Z,22.76
2022-12-18T10:04:41.423Z,22.73
2022-12-18T10:07:48.022Z,22.66
2022-12-18T10:10:33.408Z,22.57
2022-12-18T10:13:31.070Z,22.63
2022-12-18T10:16:25.527Z,22.51
2022-12-18T10:19:23.129Z,22.57
2022-12-18T10:22:05.431Z,22.54
2022-12-18T10:25:29.033Z,22.55
2022-12-18T10:28:23.501Z,22.48
2022-12-18T10:31:06.184Z,22.40
2022-12-18T10:33:55.628Z,22.56
2022-12-18T10:36:39.133Z,22.35
2022-12-18T10:39:33.389Z,22.32
2022-12-18T10:42:28.028Z,22.26
2022-12-18T10:45:25.422Z,22.03
2022-12-18T10:48:07.977Z,21.96
2022-12-18T10:51:15.076Z,21.86
2022-12-18T10:54:18.106Z,21.76
2022-12-18T10:57:27.351Z,21.66
2022-12-18T11:00:35.963Z,21.54
2022-12-18T11:03:44.581Z,21.47
2022-12-18T11:06:33.104Z,21.38
2022-12-18T11:09:31.431Z,21.25
2022-12-18T11:12:29.101Z,21.10
2022-12-18T11:15:21.925Z,21.05
2022-12-18T11:18:11.115Z,20.93
2022-12-18T11:21:11.256Z,20.88
2022-12-18T11:24:09.044Z,20.77
2022-12-18T11:26:59.982Z,20.64
2022-12-18T11:29:47.176Z,20.63
2022-12-18T11:32:45.856Z,20.51
2022-12-18T11:36:00.144Z,20.41
2022-12-18T11:38:45.081Z,20.26
2022-12-18T11:42:11.077Z,20.18
2022-12-18T11:45:21.296Z,20.06
2022-12-18T11:48:24.020Z,19.87
2022-12-18T11:51:27.151Z,19.82
2022-12-18T11:54:09.962Z,19.67
2022-12-18T11:57:19.770Z,19.73
2022-12-18T12:00:14.166Z,19.65
2022-12-18T12:03:08.608Z,19.47
2022-12-18T12:06:04.024Z,19.35
2022-12-18T12:09:37.076Z,19.23
2022-12-18T12:12:49.497Z,19.19
2022-12-18T12:15:49.099Z,19.19
2022-12-18T12:18:46.457Z,19.16
2022-12-18T12:21:51.011Z,19.08
2022-12-18T12:24:55.049Z,18.97
2022-12-18T12:27:53.347Z,19.17
2022-12-18T12:31:04.890Z,19.18
2022-12-18T12:34:07.365Z,19.12
2022-12-18T12:37:03.114Z,18.96
2022-12-18T12:39:55.352Z,18.91
2022-12-18T12:43:09.120Z,18.76
2022-12-18T12:46:05.231Z,18.64
2022-12-18T12:49:10.750Z,18.62
2022-12-18T12:52:06.165Z,18.59
2022-12-18T12:54:49.421Z,18.35
2022-12-18T12:57:55.096Z,18.33
2022-12-18T13:00:45.356Z,18.16
2022-12-18T13:04:05.044Z,18.11
2022-12-18T13:06:56.596Z,18.01
2022-12-18T13:10:25.699Z,17.94
2022-12-18T13:13:11.798Z,17.79
2022-12-18T13:16:18.999Z,17.91
2022-12-18T13:19:03.548Z,17.87
2022-12-18T13:22:02.994Z,17.96
2022-12-18T13:24:45.367Z,17.81
2022-12-18T13:27:58.938Z,17.74
2022-12-18T13:30:57.590Z,17.79
2022-12-18T13:34:25.793Z,17.69
2022-12-18T13:36:57.055Z,17.54
2022-12-18T13:39:45.380Z,17.55
2022-12-18T13:43:06.993Z,17.63
2022-12-18T13:46:13.967Z,17.67
2022-12-18T13:49:21.076Z,17.57
2022-12-18T13:52:10.331Z,17.61
2022-12-18T13:54:59.311Z,17.61
2022-12-18T13:57:49.002Z,17.49
2022-12-18T14:00:31.377Z,17.42
2022-12-18T14:03:35.059Z,17.44
2022-12-18T14:06:18.343Z,17.41
2022-12-18T14:09:08.238Z,17.35
2022-12-18T14:12:16.082Z,17.29
2022-12-18T14:15:05.088Z,17.27
2022-12-18T14:17:48.338Z,17.29
2022-12-18T14:20:40.078Z,17.30
2022-12-18T14:23:49.486Z,17.23
2022-12-18T14:26:40.055Z,17.17
2022-12-18T14:29:40.287Z,17.16
2022-12-18T14:32:30.062Z,17.07
2022-12-18T14:35:22.255Z,17.02
2022-12-18T14:38:30.107Z,17.06
2022-12-18T14:41:19.467Z,17.08
2022-12-18T14:44:16.073Z,17.10
2022-12-18T14:47:05.952Z,16.99
2022-12-18T14:49:55.322Z,16.99
2022-12-18T14:52:40.962Z,16.79
2022-12-18T14:55:30.450Z,16.82
2022-12-18T14:58:12.091Z,16.90
2022-12-18T15:00:54.513Z,16.95
2022-12-18T15:03:44.297Z,16.91
2022-12-18T15:06:43.847Z,16.86
2022-12-18T15:09:34.932Z,16.74
2022-12-18T15:12:55.057Z,16.84
2022-12-18T15:15:44.425Z,16.89
2022-12-18T15:18:40.938Z,17.01
2022-12-18T15:21:33.519Z,16.91
2022-12-18T15:24:29.054Z,16.75
2022-12-18T15:27:31.343Z,16.66
2022-12-18T15:30:19.033Z,16.63
2022-12-18T15:33:33.252Z,16.69
2022-12-18T15:36:26.291Z,16.72
2022-12-18T15:39:16.407Z,16.80
2022-12-18T15:42:17.037Z,16.73
2022-12-18T15:45:07.499Z,16.71
2022-12-18T15:47:53.100Z,16.57
2022-12-18T15:50:43.081Z,16.50
2022-12-18T15:53:26.679Z,16.36
2022-12-18T15:56:39.149Z,16.33
2022-12-18T15:59:24.303Z,16.23
2022-12-18T16:02:26.560Z,16.30
2022-12-18T16:05:09.328Z,16.17
2022-12-18T16:07:57.889Z,16.18
2022-12-18T16:10:40.398Z,16.21
2022-12-18T16:13:29.945Z,16.23
2022-12-18T16:16:13.490Z,16.23
2022-12-18T16:19:02.016Z,16.34
2022-12-18T16:21:45.305Z,16.38
2022-12-18T16:24:37.019Z,16.32
2022-12-18T16:27:32.880Z,16.11
2022-12-18T16:30:25.950Z,16.08
2022-12-18T16:33:08.261Z,16.03
2022-12-18T16:36:00.985Z,16.00
2022-12-18T16:38:49.859Z,16.50
2022-12-18T16:41:35.365Z,16.59
2022-12-18T16:44:25.064Z,16.56
2022-12-18T16:47:15.086Z,16.45
2022-12-18T16:50:00.996Z,16.37
2022-12-18T16:52:50.361Z,16.28
2022-12-18T16:55:31.973Z,16.21
2022-12-18T16:58:14.221Z,16.11
2022-12-18T17:01:03.049Z,15.99
2022-12-18T17:03:46.086Z,15.94
2022-12-18T17:06:41.059Z,15.92
2022-12-18T17:09:37.974Z,15.90
2022-12-18T17:12:20.258Z,15.83
2022-12-18T17:15:09.022Z,15.79
2022-12-18T17:17:57.319Z,15.76
2022-12-18T17:20:40.099Z,15.66
2022-12-18T17:23:28.346Z,15.59
2022-12-18T17:26:11.025Z,15.54
2022-12-18T17:29:07.051Z,15.46
2022-12-18T17:31:57.229Z,15.36
2022-12-18T17:34:41.954Z,15.33
2022-12-18T17:37:31.033Z,15.26
2022-12-18T17:40:15.824Z,15.36
2022-12-18T17:43:08.445Z,15.44
2022-12-18T17:45:51.321Z,15.38
2022-12-18T17:48:44.776Z,15.36
2022-12-18T17:51:29.459Z,15.37
2022-12-18T17:54:21.081Z,15.42
2022-12-18T17:57:04.894Z,15.51
2022-12-18T17:59:53.584Z,15.46
2022-12-18T18:02:36.462Z,15.33
2022-12-18T18:05:25.071Z,15.23
2022-12-18T18:08:11.650Z,15.25
2022-12-18T18:11:01.322Z,15.60
2022-12-18T18:14:01.708Z,15.62
2022-12-18T18:16:58.231Z,15.53
2022-12-18T18:19:49.776Z,15.55
2022-12-18T18:22:41.034Z,15.55
2022-12-18T18:25:23.323Z,15.50
2022-12-18T18:28:21.953Z,15.40
2022-12-18T18:31:08.802Z,15.39
2022-12-18T18:33:58.221Z,15.21
2022-12-18T18:36:47.833Z,15.27
2022-12-18T18:39:33.431Z,15.25
2022-12-18T18:42:23.451Z,15.21
2022-12-18T18:48:16.911Z,15.15
2022-12-18T18:51:23.515Z,15.06
2022-12-18T18:57:33.327Z,14.98
2022-12-18T19:00:23.386Z,14.96
2022-12-18T19:07:29.729Z,14.91
2022-12-18T19:10:19.959Z,14.83
2022-12-18T19:13:27.972Z,14.89
2022-12-18T19:16:18.367Z,14.94
2022-12-18T19:19:02.955Z,14.85
2022-12-18T19:21:52.033Z,15.02
2022-12-18T19:24:34.330Z,15.17
2022-12-18T19:27:26.102Z,15.11
2022-12-18T19:30:08.362Z,15.02
2022-12-18T19:33:05.467Z,14.99
2022-12-18T19:35:57.497Z,14.95
2022-12-18T19:38:49.439Z,14.96
2022-12-18T19:41:32.940Z,14.83
2022-12-18T19:44:24.936Z,14.70
2022-12-18T19:47:08.151Z,14.67
2022-12-18T19:49:56.981Z,14.85
2022-12-18T19:52:39.309Z,14.76
2022-12-18T19:55:27.939Z,14.78
2022-12-18T19:58:10.268Z,14.73
2022-12-18T20:00:58.920Z,14.75
2022-12-18T20:03:41.786Z,14.75
2022-12-18T20:06:59.966Z,14.72
2022-12-18T20:10:00.419Z,14.62
2022-12-18T20:12:55.200Z,14.60
2022-12-18T20:15:44.885Z,14.54
2022-12-18T20:18:34.210Z,14.53
2022-12-18T20:21:15.984Z,14.47
2022-12-18T20:24:00.146Z,14.35
2022-12-18T20:26:48.956Z,14.27
2022-12-18T20:29:31.612Z,14.34
2022-12-18T20:32:20.997Z,14.30
2022-12-18T20:35:09.326Z,14.30
2022-12-18T20:37:52.001Z,14.36
2022-12-18T20:40:41.924Z,14.40
2022-12-18T20:43:24.287Z,14.39
2022-12-18T20:46:16.968Z,14.32
2022-12-18T20:48:59.299Z,14.42
2022-12-18T20:51:48.028Z,14.42
2022-12-18T20:54:32.320Z,14.25
2022-12-18T20:57:20.970Z,14.37
2022-12-18T21:00:03.215Z,14.39
2022-12-18T21:02:52.051Z,14.44
2022-12-18T21:05:34.263Z,14.34
2022-12-18T21:08:24.964Z,14.32
2022-12-18T21:11:54.381Z,14.41
2022-12-18T21:14:43.006Z,14.33
2022-12-18T21:17:25.988Z,14.32
2022-12-18T21:20:18.139Z,14.31
2022-12-18T21:23:15.733Z,14.21
2022-12-18T21:26:23.886Z,14.05
2022-12-18T21:29:10.202Z,14.11
2022-12-18T21:32:00.846Z,14.12
2022-12-18T21:34:47.951Z,14.20
2022-12-18T21:37:36.916Z,14.15
2022-12-18T21:40:20.305Z,14.02
2022-12-18T21:43:27.004Z,14.08
2022-12-18T21:46:09.293Z,14.05
2022-12-18T21:48:57.839Z,14.00
2022-12-18T21:51:41.266Z,14.03
2022-12-18T21:54:31.069Z,14.03
2022-12-18T21:57:17.622Z,13.94
2022-12-18T22:00:07.065Z,14.01
2022-12-18T22:02:49.576Z,14.01
2022-12-18T22:06:07.636Z,13.96
2022-12-18T22:08:57.275Z,14.02
2022-12-18T22:11:40.021Z,13.94
2022-12-18T22:14:30.228Z,14.42
2022-12-18T22:17:13.222Z,14.53
2022-12-18T22:20:02.917Z,14.46
2022-12-18T22:22:45.210Z,14.37
2022-12-18T22:25:33.892Z,14.21
2022-12-18T22:28:41.900Z,14.07
2022-12-18T22:31:30.911Z,13.89
2022-12-18T22:34:23.159Z,14.18
2022-12-18T22:37:18.984Z,13.93
2022-12-18T22:40:07.500Z,13.79
2022-12-18T22:42:51.309Z,13.75
2022-12-18T22:45:41.241Z,13.81
2022-12-18T22:48:23.802Z,13.88
2022-12-18T22:51:13.227Z,13.80
2022-12-18T22:53:55.047Z,13.65
2022-12-18T22:56:37.514Z,13.48
2022-12-18T22:59:36.844Z,13.45
2022-12-18T23:02:27.078Z,13.37
2022-12-18T23:05:15.948Z,13.37
2022-12-18T23:08:05.241Z,13.31
2022-12-18T23:10:48.004Z,13.21
2022-12-18T23:13:30.526Z,13.21
2022-12-18T23:16:24.031Z,13.07
2022-12-18T23:19:06.764Z,13.25
2022-12-18T23:21:57.075Z,13.33
2022-12-18T23:24:46.991Z,13.39
2022-12-18T23:27:36.991Z,13.21
2022-12-18T23:30:26.237Z,13.10
2022-12-18T23:33:09.035Z,13.37
2022-12-18T23:35:57.210Z,13.34
2022-12-18T23:38:40.928Z,13.29
2022-12-18T23:41:32.467Z,13.39
2022-12-18T23:44:14.966Z,13.40
2022-12-18T23:46:57.526Z,13.15
2022-12-18T23:49:45.913Z,13.18
2022-12-18T23:52:28.164Z,13.19
2022-12-18T23:55:16.930Z,13.15
2022-12-18T23:57:59.121Z,13.24
